ADDS METAR Data INFO
IDs: Format: Raw Decoded Include TAF

Data at: 1032 UTC 23 Feb 2018

KALI 231008Z AUTO 33006KT 3/4SM BR VV002 11/11 A3013 RMK AO2 T01110106
KALI 230953Z AUTO 34007KT 1/2SM FG VV002 11/11 A3013 RMK AO2 SLP202 T01110106
KALI 230933Z AUTO 01004KT 1/2SM FG VV002 11/11 A3012 RMK AO2 T01110106
KALI 230922Z AUTO 06005KT 3/4SM BR VV002 11/11 A3012 RMK AO2 T01110111
KALI 230911Z AUTO 02004KT 1/2SM FG VV002 11/11 A3013 RMK AO2 T01110106
KALI 230900Z AUTO 05005KT 3/4SM BR VV002 11/11 A3012 RMK AO2 T01110106
KALI 230853Z AUTO 05006KT 1SM BR VV002 11/11 A3012 RMK AO2 SLP199 T01110106 58018
KALI 230838Z AUTO 03005KT 1 1/2SM BR OVC002 11/11 A3014 RMK AO2 T01110106
KALI 230818Z AUTO 01003KT 2 1/2SM BR OVC002 11/11 A3016 RMK AO2 T01110106
KALI 230753Z AUTO 01003KT 5SM BR OVC003 11/11 A3017 RMK AO2 SLP217 T01110106
KALI 230726Z AUTO 32005KT 3SM BR OVC002 11/11 A3019 RMK AO2 T01110106
KALI 230717Z AUTO 34004KT 2 1/2SM BR OVC002 11/11 A3019 RMK AO2 T01110106
KALI 230653Z AUTO 02005KT 4SM BR OVC002 11/11 A3018 RMK AO2 SLP219 T01110111
KALI 230630Z AUTO 04006KT 2 1/2SM BR OVC002 11/11 A3017 RMK AO2 T01110106
KALI 230622Z AUTO 04007KT 1 1/2SM BR OVC002 11/11 A3017 RMK AO2 T01110106
KALI 230553Z AUTO 03005KT 3/4SM BR VV002 11/11 A3018 RMK AO2 SLP217 T01110106 10117 20106 401220083 58002
KALI 230543Z AUTO 05006KT 3/4SM BR VV002 11/11 A3017 RMK AO2 T01060106
KALI 230453Z AUTO 02005KT 1 1/2SM BR OVC002 11/10 A3018 RMK AO2 SLP218 T01060100
KALI 230403Z AUTO 32005KT 1 1/2SM BR OVC003 11/10 A3020 RMK AO2 T01110100
KALI 230353Z AUTO 34005KT 2SM BR OVC003 11/10 A3019 RMK AO2 SLP223 T01060100
KALI 230253Z AUTO 36006KT 2SM BR OVC003 11/11 A3018 RMK AO2 SLP219 T01110106 51015
KALI 230217Z AUTO 02005KT 1 3/4SM BR OVC003 11/10 A3017 RMK AO2 T01110100
KALI 230210Z AUTO 03006KT 2SM BR OVC003 11/11 A3017 RMK AO2 T01110106
KALI 230153Z AUTO 01006KT 2 1/2SM BR OVC004 11/10 A3017 RMK AO2 SLP216 T01110100
KALI 230135Z AUTO 02007KT 2 1/2SM BR OVC004 11/10 A3016 RMK AO2 T01110100
KALI 230124Z AUTO 01007KT 3SM BR OVC004 11/10 A3016 RMK AO2 T01110100
KALI 230053Z AUTO 01007KT 3SM BR OVC006 11/10 A3015 RMK AO2 SLP209 T01110100
KALI 222353Z AUTO 01006KT 9SM OVC007 12/10 A3013 RMK AO2 SLP204 T01170100 10122 20106 56001
KALI 222253Z AUTO 01006KT 10SM OVC007 12/10 A3014 RMK AO2 SLP204 T01220100
KALI 222153Z AUTO 36007KT 10SM OVC006 12/10 A3013 RMK AO2 SLP203 T01220100
KALI 222053Z AUTO 02006KT 10SM OVC005 12/10 A3014 RMK AO2 SLP205 T01170100 58025
KALI 221953Z AUTO 35007KT 10SM OVC005 11/09 A3016 RMK AO2 SLP213 T01110094
KALI 221853Z AUTO 35008KT 9SM OVC005 11/09 A3020 RMK AO2 SLP225 T01060094
KALI 221811Z AUTO 34009KT 7SM OVC005 11/09 A3022 RMK AO2 T01060094
KALI 221753Z AUTO 35008KT 6SM BR OVC004 11/09 A3021 RMK AO2 SLP230 T01060094 10106 20094 50002
KALI 221653Z AUTO 34006KT 6SM BR OVC004 10/09 A3023 RMK AO2 SLP237 T01000089
KALI 221553Z AUTO 33010KT 7SM OVC004 09/09 A3022 RMK AO2 SLP233 T00940089
KALI 221453Z AUTO 35008KT 4SM BR OVC004 10/09 A3021 RMK AO2 SLP228 T01000089 51016
KALI 221431Z AUTO 34007KT 3SM BR OVC004 10/09 A3021 RMK AO2 T01000089
KALI 221423Z AUTO 34007KT 2 1/2SM BR OVC004 10/09 A3020 RMK AO2 T01000089
KALI 221405Z AUTO 34008KT 1 3/4SM BR OVC004 10/09 A3020 RMK AO2 T01000089
KALI 221353Z AUTO 34007KT 2 1/2SM BR OVC004 10/09 A3019 RMK AO2 SLP224 T01000094
KALI 221346Z AUTO 35006KT 3SM BR OVC004 10/09 A3019 RMK AO2 T01000089
KALI 221320Z AUTO 35008KT 5SM BR OVC005 10/09 A3019 RMK AO2 T01000089
KALI 221253Z AUTO 36008KT 5SM BR OVC004 09/09 A3018 RMK AO2 SLP219 T00940089
KALI 221153Z AUTO 36007KT 6SM BR OVC004 09/09 A3016 RMK AO2 SLP212 60001 70001 T00940089 10094 20083 52001
KALI 221113Z AUTO 01006KT 3SM BR OVC004 09/08 A3016 RMK AO2 T00940083
KALI 221101Z AUTO 36008KT 3SM BR OVC003 09/08 A3015 RMK AO2 T00940083
KALI 221053Z AUTO 35006KT 2 1/2SM BR OVC004 09/09 A3016 RMK AO2 SLP211 T00940089
KALI 221040Z AUTO 34008KT 2 1/2SM BR OVC004 09/08 A3016 RMK AO2 T00940083
KALI 220953Z AUTO 34006KT 2 1/2SM BR OVC003 09/08 A3016 RMK AO2 RAB19E28 SLP212 P0000 T00940083
KALI 220939Z AUTO 35006KT 2 1/2SM BR OVC003 09/08 A3016 RMK AO2 RAB19E28 P0000 T00890083
KALI 220925Z AUTO 02007KT 3SM -RA BR OVC003 09/08 A3015 RMK AO2 RAB19 P0000 T00890083
KALI 220853Z AUTO 36006KT 2 1/2SM BR OVC003 09/08 A3016 RMK AO2 RAE08 SLP210 P0001 60001 T00890083 56006
KALI 220821Z AUTO 36006KT 2 1/2SM BR OVC004 09/08 A3016 RMK AO2 RAE08 P0000 T00890083
KALI 220805Z AUTO 01007KT 3SM -RA BR OVC004 09/08 A3016 RMK AO2 P0000 T00890078
KALI 220753Z AUTO 36006KT 3SM -RA BR OVC005 09/08 A3017 RMK AO2 RAB0659E08B48 SLP213 P0000 T00890083
KALI 220746Z AUTO 36006KT 3SM BR OVC005 09/08 A3016 RMK AO2 RAB0659E08 P0000 T00890078
KALI 220711Z AUTO 36008KT 3SM BR OVC004 08/08 A3017 RMK AO2 RAB0659E08 P0000 T00830078
KALI 220653Z AUTO 35006KT 2 1/2SM BR OVC004 08/08 A3017 RMK AO2 RAB41E50 SLP216 P0000 T00830078
KALI 220600Z AUTO 01011KT 2 1/2SM BR OVC004 08/08 A3017 RMK AO2 T00830078
KALI 220553Z AUTO 01010KT 2 1/2SM BR OVC003 08/08 A3017 RMK AO2 SLP216 60000 T00830078 10122 20078 402940078 51001
KALI 220516Z AUTO 01010KT 2 1/2SM BR OVC003 08/07 A3018 RMK AO2 T00830072
KALI 220453Z AUTO 01010KT 2 1/2SM BR OVC004 08/07 A3017 RMK AO2 SLP216 T00830072
KALI 220451Z AUTO 01011KT 2 1/2SM BR OVC004 08/07 A3017 RMK AO2
KALI 220419Z AUTO 36010KT 3SM BR OVC004 08/07 A3017 RMK AO2 T00830072
KALI 220353Z AUTO 01011KT 4SM BR OVC006 08/07 A3017 RMK AO2 CIG 004V008 SLPNO T00830072
KALI 220029Z AUTO 36016KT 10SM OVC009 11/08 A3008 RMK AO2 T01110083
KALI 212353Z AUTO 36013G24KT 10SM OVC010 12/09 A3007 RMK AO2 LTG DSNT S SLPNO T01220094 10294 20122 53036
KALI 212327Z AUTO 36018G23KT 10SM OVC010 13/10 A3005 RMK AO2 T01280100
KALI 212253Z AUTO 36017KT 10SM BKN009 BKN021 OVC026 14/11 A3004 RMK AO2 PK WND 02027/2224 SLPNO T01390106